Time;durP1;ratioP1;P1;durP2;ratioP2;P2;SDS_P1;SDS_P2;PMS_P1;PMS_P2;Temp;Humidity;BMP_temperature;BMP_pressure;BME280_temperature;BME280_humidity;BME280_pressure;Samples;Min_cycle;Max_cycle;Signal;HPM_P1;HPM_P2
2022/11/22 00:00:03;;;;;;;9.55;5.38;;;;;;;;;;4995419;28;20069;-77
2022/11/22 00:02:28;;;;;;;8.55;5.10;;;;;;;;;;4977703;28;20049;-76
2022/11/22 00:04:54;;;;;;;10.50;4.05;;;;;;;;;;4995200;28;20093;-77
2022/11/22 00:07:19;;;;;;;13.90;6.47;;;;;;;;;;4995664;28;20030;-77
2022/11/22 00:09:44;;;;;;;9.45;4.57;;;;;;;;;;4995537;28;20484;-76
2022/11/22 00:12:09;;;;;;;13.30;5.97;;;;;;;;;;4995465;28;20110;-77
2022/11/22 00:14:35;;;;;;;9.55;5.38;;;;;;;;;;4996166;28;20105;-78
2022/11/22 00:17:00;;;;;;;10.98;5.53;;;;;;;;;;4977862;28;20022;-76
2022/11/22 00:19:25;;;;;;;11.73;6.22;;;;;;;;;;4994773;28;20117;-78
2022/11/22 00:21:50;;;;;;;13.45;6.10;;;;;;;;;;4976976;28;20030;-78
2022/11/22 00:24:16;;;;;;;14.60;5.50;;;;;;;;;;4995064;28;20101;-76
2022/11/22 00:26:41;;;;;;;10.88;5.85;;;;;;;;;;4994846;28;20492;-77
2022/11/22 00:29:06;;;;;;;16.08;5.90;;;;;;;;;;4994379;28;20026;-77
2022/11/22 00:31:32;;;;;;;11.80;5.72;;;;;;;;;;4995425;28;20527;-77
2022/11/22 00:33:57;;;;;;;13.30;5.93;;;;;;;;;;4994399;28;20553;-77
2022/11/22 00:36:23;;;;;;;10.77;5.40;;;;;;;;;;4994564;28;20031;-76
2022/11/22 00:38:48;;;;;;;9.85;5.20;;;;;;;;;;4994283;28;20057;-77
2022/11/22 00:41:13;;;;;;;10.27;5.82;;;;;;;;;;4994347;28;20364;-77
2022/11/22 00:43:39;;;;;;;10.45;4.47;;;;;;;;;;4994502;28;20014;-77
2022/11/22 00:46:04;;;;;;;9.40;5.18;;;;;;;;;;4998640;28;20065;-80
2022/11/22 00:48:29;;;;;;;9.98;5.18;;;;;;;;;;4995187;28;20033;-78
2022/11/22 00:50:55;;;;;;;7.15;3.83;;;;;;;;;;4994460;28;20027;-77
2022/11/22 00:53:21;;;;;;;8.93;4.63;;;;;;;;;;4994311;28;20032;-77
2022/11/22 00:55:47;;;;;;;9.25;5.22;;;;;;;;;;4994837;28;20464;-77
2022/11/22 00:58:12;;;;;;;8.73;4.75;;;;;;;;;;4976353;28;20033;-77
2022/11/22 01:00:38;;;;;;;8.27;5.35;;;;;;;;;;4976834;28;20544;-77
2022/11/22 01:03:03;;;;;;;8.20;4.70;;;;;;;;;;4994659;28;20391;-76
2022/11/22 01:05:28;;;;;;;8.10;4.13;;;;;;;;;;4993699;28;20022;-77
2022/11/22 01:07:54;;;;;;;7.20;4.20;;;;;;;;;;4994403;28;20128;-77
2022/11/22 01:10:20;;;;;;;8.57;4.72;;;;;;;;;;4994079;28;20054;-77
2022/11/22 01:12:45;;;;;;;9.93;5.13;;;;;;;;;;4993997;28;20113;-77
2022/11/22 01:15:10;;;;;;;9.25;4.43;;;;;;;;;;4993520;28;20018;-77
2022/11/22 01:17:36;;;;;;;10.50;5.75;;;;;;;;;;4994027;28;20041;-76
2022/11/22 01:20:02;;;;;;;9.02;4.57;;;;;;;;;;4976276;28;20447;-76
2022/11/22 01:22:27;;;;;;;9.65;5.18;;;;;;;;;;4976639;28;20022;-77
2022/11/22 01:24:52;;;;;;;9.52;5.22;;;;;;;;;;4976353;28;20021;-77
2022/11/22 01:27:18;;;;;;;9.18;4.68;;;;;;;;;;4993985;28;20026;-77
2022/11/22 01:29:43;;;;;;;12.00;5.93;;;;;;;;;;4994027;28;20450;-76
2022/11/22 01:32:08;;;;;;;11.57;5.07;;;;;;;;;;4993848;28;20097;-76
2022/11/22 01:34:34;;;;;;;10.82;5.32;;;;;;;;;;4993689;28;20066;-75
2022/11/22 01:36:59;;;;;;;11.05;5.35;;;;;;;;;;4975917;28;20598;-77
2022/11/22 01:39:24;;;;;;;6.93;3.92;;;;;;;;;;4975601;28;20100;-76
2022/11/22 01:41:50;;;;;;;10.93;5.15;;;;;;;;;;4993242;28;20085;-76
2022/11/22 01:44:19;;;;;;;12.25;6.00;;;;;;;;;;4994565;28;20022;-76
2022/11/22 01:46:48;;;;;;;10.25;5.57;;;;;;;;;;4980989;28;20113;-76
2022/11/22 01:49:30;;;;;;;8.60;4.85;;;;;;;;;;4998365;28;20058;-77
2022/11/22 01:52:04;;;;;;;9.32;5.53;;;;;;;;;;4999034;28;20469;-76
2022/11/22 01:54:33;;;;;;;12.13;5.82;;;;;;;;;;4997230;28;20032;-76
2022/11/22 01:57:06;;;;;;;10.98;5.80;;;;;;;;;;4980167;28;20066;-76
2022/11/22 01:59:34;;;;;;;8.98;5.18;;;;;;;;;;4995853;28;20026;-75
2022/11/22 02:02:01;;;;;;;9.75;5.60;;;;;;;;;;4979977;28;20026;-76
2022/11/22 02:04:29;;;;;;;11.60;5.85;;;;;;;;;;4997476;28;20031;-76
2022/11/22 02:07:32;;;;;;;12.73;5.78;;;;;;;;;;4997012;28;20053;-77
2022/11/22 02:09:57;;;;;;;10.77;5.40;;;;;;;;;;4997106;28;20110;-78
2022/11/22 02:12:27;;;;;;;11.80;5.82;;;;;;;;;;4997206;28;20046;-76
2022/11/22 02:14:53;;;;;;;12.15;5.85;;;;;;;;;;4996881;28;20018;-76
2022/11/22 02:17:18;;;;;;;9.15;5.30;;;;;;;;;;4996659;28;20398;-78
2022/11/22 02:19:48;;;;;;;11.20;5.82;;;;;;;;;;4997628;28;20113;-77
2022/11/22 02:22:37;;;;;;;9.38;5.20;;;;;;;;;;4997233;28;20116;-77
2022/11/22 02:25:31;;;;;;;9.85;5.75;;;;;;;;;;4997135;28;20101;-77
2022/11/22 02:27:56;;;;;;;11.18;5.85;;;;;;;;;;4978263;28;20057;-77
2022/11/22 02:30:22;;;;;;;10.98;6.30;;;;;;;;;;4996978;28;20026;-77
2022/11/22 02:32:47;;;;;;;9.93;5.70;;;;;;;;;;4997419;28;20022;-77
2022/11/22 02:35:22;;;;;;;12.85;6.05;;;;;;;;;;4996649;28;20383;-77
2022/11/22 02:37:51;;;;;;;10.57;4.80;;;;;;;;;;4979453;28;20038;-76
2022/11/22 02:40:18;;;;;;;9.25;5.20;;;;;;;;;;4996874;28;20034;-76
2022/11/22 02:42:48;;;;;;;8.25;4.95;;;;;;;;;;4996688;28;20434;-78
2022/11/22 02:45:13;;;;;;;10.52;5.55;;;;;;;;;;4996971;28;20026;-76
2022/11/22 02:47:38;;;;;;;8.95;5.30;;;;;;;;;;4996511;28;20030;-77
2022/11/22 02:50:04;;;;;;;10.20;5.38;;;;;;;;;;4996935;28;20533;-78
2022/11/22 02:52:29;;;;;;;10.05;5.55;;;;;;;;;;4996884;28;20439;-77
2022/11/22 02:54:55;;;;;;;11.50;6.40;;;;;;;;;;4978745;28;20476;-77
2022/11/22 02:57:20;;;;;;;12.05;5.43;;;;;;;;;;4996022;28;20027;-77
2022/11/22 02:59:45;;;;;;;10.15;5.95;;;;;;;;;;4996948;28;20093;-77
2022/11/22 03:02:10;;;;;;;12.02;6.53;;;;;;;;;;4979008;28;20049;-77
2022/11/22 03:04:36;;;;;;;12.40;5.05;;;;;;;;;;4996098;28;20023;-77
2022/11/22 03:07:01;;;;;;;9.38;5.57;;;;;;;;;;4995984;28;20067;-77
2022/11/22 03:09:27;;;;;;;11.25;5.80;;;;;;;;;;4978525;28;20057;-77
2022/11/22 03:11:53;;;;;;;14.88;6.93;;;;;;;;;;4996037;28;20034;-76
2022/11/22 03:14:19;;;;;;;10.65;6.28;;;;;;;;;;4995990;28;20097;-77
2022/11/22 03:16:46;;;;;;;10.18;5.78;;;;;;;;;;4996331;28;20081;-77
2022/11/22 03:19:12;;;;;;;11.80;6.18;;;;;;;;;;4978877;28;20511;-76
2022/11/22 03:21:39;;;;;;;12.43;6.38;;;;;;;;;;4996441;28;20026;-77
2022/11/22 03:24:05;;;;;;;9.88;5.47;;;;;;;;;;4995641;28;20068;-77
2022/11/22 03:26:30;;;;;;;8.95;5.57;;;;;;;;;;4978428;28;20034;-77
2022/11/22 03:28:56;;;;;;;10.07;6.28;;;;;;;;;;4995837;28;20029;-77
2022/11/22 03:31:21;;;;;;;9.80;5.30;;;;;;;;;;4995579;28;20053;-76
2022/11/22 03:33:46;;;;;;;10.05;5.95;;;;;;;;;;4995622;28;20018;-78
2022/11/22 03:36:12;;;;;;;11.70;6.35;;;;;;;;;;4995831;28;20088;-78
2022/11/22 03:38:37;;;;;;;8.20;5.28;;;;;;;;;;4978131;28;20026;-76
2022/11/22 03:41:03;;;;;;;9.35;5.72;;;;;;;;;;4995137;28;20442;-78
2022/11/22 03:43:28;;;;;;;13.50;5.75;;;;;;;;;;4978146;28;20549;-77
2022/11/22 03:45:53;;;;;;;9.82;6.10;;;;;;;;;;4995440;28;20026;-77
2022/11/22 03:48:18;;;;;;;10.38;5.82;;;;;;;;;;4978327;28;20142;-77
2022/11/22 03:50:44;;;;;;;10.35;5.13;;;;;;;;;;4977612;28;20505;-77
2022/11/22 03:53:10;;;;;;;9.88;5.53;;;;;;;;;;4977737;28;20018;-77
2022/11/22 03:55:36;;;;;;;10.30;5.53;;;;;;;;;;4995598;28;20026;-76
2022/11/22 03:58:01;;;;;;;11.48;5.55;;;;;;;;;;4995088;28;20036;-77
2022/11/22 04:00:26;;;;;;;10.68;5.78;;;;;;;;;;4995343;28;20034;-76
2022/11/22 04:02:52;;;;;;;8.20;5.00;;;;;;;;;;4995315;28;20038;-78
2022/11/22 04:05:17;;;;;;;9.43;5.25;;;;;;;;;;4995412;28;20022;-78
2022/11/22 04:07:42;;;;;;;8.50;4.60;;;;;;;;;;4977642;28;20054;-77
2022/11/22 04:10:08;;;;;;;13.10;5.18;;;;;;;;;;4994623;28;20046;-77
2022/11/22 04:12:33;;;;;;;8.23;4.78;;;;;;;;;;4977601;28;20452;-77
2022/11/22 04:15:08;;;;;;;10.25;4.93;;;;;;;;;;4995066;28;20026;-77
2022/11/22 04:17:40;;;;;;;3.38;2.10;;;;;;;;;;4995390;28;20417;-77
2022/11/22 04:23:02;;;;;;;7.15;4.10;;;;;;;;;;4995838;28;20056;-78
2022/11/22 04:25:30;;;;;;;5.50;3.60;;;;;;;;;;4995463;28;20032;-76
2022/11/22 04:27:56;;;;;;;7.85;3.90;;;;;;;;;;4977455;28;20034;-77
2022/11/22 04:32:44;;;;;;;7.68;3.72;;;;;;;;;;4995380;28;20113;-77
2022/11/22 04:33:08;;;;;;;7.97;3.97;;;;;;;;;;4995030;28;20065;-78
2022/11/22 04:35:33;;;;;;;10.60;5.35;;;;;;;;;;4995198;28;20033;-78
2022/11/22 04:37:58;;;;;;;4.82;2.92;;;;;;;;;;4994426;28;20026;-78
2022/11/22 04:40:24;;;;;;;6.82;3.10;;;;;;;;;;4995351;28;20034;-78
2022/11/22 04:45:33;;;;;;;8.40;4.65;;;;;;;;;;4995257;28;20032;-78
2022/11/22 04:47:58;;;;;;;12.30;4.82;;;;;;;;;;4995440;28;20037;-78
2022/11/22 04:53:08;;;;;;;7.80;4.57;;;;;;;;;;4994757;28;20500;-78
2022/11/22 04:55:34;;;;;;;8.45;4.85;;;;;;;;;;4994997;28;20046;-78
2022/11/22 04:57:59;;;;;;;7.65;4.47;;;;;;;;;;4994814;28;20026;-77
2022/11/22 05:00:26;;;;;;;9.38;4.80;;;;;;;;;;4994495;28;20058;-77
2022/11/22 05:02:51;;;;;;;9.38;4.60;;;;;;;;;;4994072;28;20105;-77
2022/11/22 05:05:17;;;;;;;9.98;5.65;;;;;;;;;;4994672;28;20094;-77
2022/11/22 05:07:42;;;;;;;6.95;4.15;;;;;;;;;;4994275;28;20115;-77
2022/11/22 05:10:08;;;;;;;6.35;3.63;;;;;;;;;;4976242;28;20026;-77
2022/11/22 05:12:33;;;;;;;12.75;5.07;;;;;;;;;;4994729;28;20032;-77
2022/11/22 05:14:58;;;;;;;10.15;5.00;;;;;;;;;;4994267;28;20427;-77
2022/11/22 05:17:24;;;;;;;6.57;4.00;;;;;;;;;;4994115;28;20085;-78
2022/11/22 05:19:49;;;;;;;8.88;4.90;;;;;;;;;;4994517;28;20037;-77
2022/11/22 05:22:14;;;;;;;9.05;5.15;;;;;;;;;;4994363;28;20521;-79
2022/11/22 05:24:40;;;;;;;7.25;3.55;;;;;;;;;;4993941;28;20034;-77
2022/11/22 05:27:05;;;;;;;8.45;4.50;;;;;;;;;;4993943;28;20405;-77
2022/11/22 05:29:30;;;;;;;9.68;5.05;;;;;;;;;;4994886;28;20022;-78
2022/11/22 05:31:55;;;;;;;9.55;4.03;;;;;;;;;;4993892;28;20046;-77
2022/11/22 05:34:21;;;;;;;9.02;4.70;;;;;;;;;;4994086;28;20030;-78
2022/11/22 05:36:46;;;;;;;11.23;5.22;;;;;;;;;;4994031;28;20039;-76
2022/11/22 05:39:11;;;;;;;10.15;5.95;;;;;;;;;;4976357;28;20030;-77
2022/11/22 05:41:37;;;;;;;10.88;5.68;;;;;;;;;;4976107;28;20024;-77
2022/11/22 05:44:02;;;;;;;10.77;4.50;;;;;;;;;;4994007;28;20368;-77
2022/11/22 05:46:28;;;;;;;10.52;4.75;;;;;;;;;;4976224;28;20030;-77
2022/11/22 05:48:55;;;;;;;9.00;4.63;;;;;;;;;;4993725;28;20023;-77
2022/11/22 05:51:23;;;;;;;11.35;5.32;;;;;;;;;;4993959;28;20042;-77
2022/11/22 05:53:49;;;;;;;8.23;5.32;;;;;;;;;;4993196;28;20029;-77
2022/11/22 05:56:16;;;;;;;10.32;5.68;;;;;;;;;;4993474;28;20466;-77
2022/11/22 05:58:42;;;;;;;9.98;5.88;;;;;;;;;;4975895;28;20030;-78
2022/11/22 06:01:19;;;;;;;9.63;5.07;;;;;;;;;;4994433;28;20042;-76
2022/11/22 06:03:44;;;;;;;8.25;4.97;;;;;;;;;;4993968;28;20081;-76
2022/11/22 06:06:10;;;;;;;9.35;4.15;;;;;;;;;;4994474;28;20443;-76
2022/11/22 06:08:39;;;;;;;7.13;4.60;;;;;;;;;;4993827;28;20026;-78
2022/11/22 06:11:13;;;;;;;8.38;5.43;;;;;;;;;;4994516;28;20022;-77
2022/11/22 06:13:40;;;;;;;13.80;5.97;;;;;;;;;;4994830;28;20019;-77
2022/11/22 06:16:09;;;;;;;10.20;5.80;;;;;;;;;;4993716;28;20034;-78
2022/11/22 06:18:35;;;;;;;10.70;5.95;;;;;;;;;;4976549;28;20491;-78
2022/11/22 06:21:03;;;;;;;9.68;5.35;;;;;;;;;;4976227;28;20038;-76
2022/11/22 06:23:29;;;;;;;9.85;5.03;;;;;;;;;;4975441;28;20121;-76
2022/11/22 06:25:57;;;;;;;8.73;5.00;;;;;;;;;;4976654;28;20487;-78
2022/11/22 06:28:23;;;;;;;8.93;5.13;;;;;;;;;;4994609;28;20053;-78
2022/11/22 06:30:48;;;;;;;9.48;5.35;;;;;;;;;;4993794;28;20073;-78
2022/11/22 06:33:13;;;;;;;11.77;5.88;;;;;;;;;;4997132;28;20080;-77
2022/11/22 06:35:38;;;;;;;9.73;5.22;;;;;;;;;;4979802;28;20050;-76
2022/11/22 06:38:04;;;;;;;10.23;5.85;;;;;;;;;;4996287;28;20498;-77
2022/11/22 06:40:29;;;;;;;9.98;5.43;;;;;;;;;;4996561;28;20026;-76
2022/11/22 06:42:54;;;;;;;9.68;5.57;;;;;;;;;;4996171;28;20030;-77
2022/11/22 06:45:19;;;;;;;10.23;3.90;;;;;;;;;;4996326;28;20511;-77
2022/11/22 06:47:45;;;;;;;5.53;3.13;;;;;;;;;;4996727;28;20428;-77
2022/11/22 06:50:10;;;;;;;10.48;5.60;;;;;;;;;;4996448;28;20027;-77
2022/11/22 06:52:35;;;;;;;10.73;5.90;;;;;;;;;;4996541;28;20031;-77
2022/11/22 06:55:00;;;;;;;9.43;5.40;;;;;;;;;;4978876;28;20033;-77
2022/11/22 06:57:26;;;;;;;9.10;5.10;;;;;;;;;;4996147;28;20497;-76
2022/11/22 06:59:51;;;;;;;11.20;5.78;;;;;;;;;;4995995;28;20435;-76
2022/11/22 07:02:16;;;;;;;9.88;5.30;;;;;;;;;;4995926;28;20095;-77
2022/11/22 07:04:41;;;;;;;11.15;5.75;;;;;;;;;;4996010;28;20022;-77
2022/11/22 07:07:07;;;;;;;8.90;5.57;;;;;;;;;;4996069;28;20084;-78
2022/11/22 07:09:32;;;;;;;7.05;4.40;;;;;;;;;;4995970;28;20045;-77
2022/11/22 07:11:57;;;;;;;10.52;5.32;;;;;;;;;;4978801;28;20407;-78
2022/11/22 07:14:22;;;;;;;9.65;5.43;;;;;;;;;;4996309;28;20482;-77
2022/11/22 07:16:48;;;;;;;6.57;3.80;;;;;;;;;;4978495;28;20022;-77
2022/11/22 07:19:13;;;;;;;11.32;5.93;;;;;;;;;;4995867;28;20064;-78
2022/11/22 07:21:38;;;;;;;10.15;5.97;;;;;;;;;;4996062;28;20030;-77
2022/11/22 07:24:05;;;;;;;10.80;6.07;;;;;;;;;;4996117;28;20022;-77
2022/11/22 07:26:30;;;;;;;12.82;6.20;;;;;;;;;;4995783;28;20034;-78
2022/11/22 07:28:56;;;;;;;9.85;5.68;;;;;;;;;;4996141;28;20033;-76
2022/11/22 07:31:21;;;;;;;10.80;6.15;;;;;;;;;;4996350;28;20023;-77
2022/11/22 07:33:47;;;;;;;10.85;6.22;;;;;;;;;;4978944;28;20073;-78
2022/11/22 07:36:18;;;;;;;7.65;4.72;;;;;;;;;;4996032;28;20494;-77
2022/11/22 07:38:44;;;;;;;10.40;5.75;;;;;;;;;;4995838;28;20101;-77
2022/11/22 07:41:10;;;;;;;9.52;5.72;;;;;;;;;;4977683;28;20057;-76
2022/11/22 07:43:35;;;;;;;10.48;6.13;;;;;;;;;;4977057;28;20054;-75
2022/11/22 07:46:03;;;;;;;11.07;6.05;;;;;;;;;;4997000;28;20491;-76
2022/11/22 07:48:28;;;;;;;9.85;5.63;;;;;;;;;;4995951;28;20031;-77
2022/11/22 07:50:54;;;;;;;10.93;6.18;;;;;;;;;;4996051;28;20037;-78
2022/11/22 07:53:19;;;;;;;8.43;4.85;;;;;;;;;;4978294;28;20022;-77
2022/11/22 07:55:44;;;;;;;14.15;7.07;;;;;;;;;;4997180;28;20526;-77
2022/11/22 07:58:09;;;;;;;10.85;5.40;;;;;;;;;;4978360;28;20034;-76
2022/11/22 08:00:35;;;;;;;12.23;6.20;;;;;;;;;;4995890;28;20038;-76
2022/11/22 08:03:00;;;;;;;10.65;6.32;;;;;;;;;;4995557;28;20085;-76
2022/11/22 08:05:25;;;;;;;10.15;5.15;;;;;;;;;;4995418;28;20068;-76
2022/11/22 08:07:52;;;;;;;10.75;5.68;;;;;;;;;;4995005;28;20051;-76
2022/11/22 08:10:19;;;;;;;10.77;6.05;;;;;;;;;;4994899;28;20032;-76
2022/11/22 08:12:45;;;;;;;10.95;6.05;;;;;;;;;;4995051;28;20475;-76
2022/11/22 08:15:12;;;;;;;11.18;6.28;;;;;;;;;;4994953;28;20507;-76
2022/11/22 08:17:37;;;;;;;11.55;6.07;;;;;;;;;;4994848;28;20038;-77
2022/11/22 08:20:04;;;;;;;11.40;6.50;;;;;;;;;;4995079;28;20026;-77
2022/11/22 08:22:29;;;;;;;12.02;6.68;;;;;;;;;;4995308;28;20464;-77
2022/11/22 08:24:54;;;;;;;12.80;6.28;;;;;;;;;;4995369;28;20029;-77
2022/11/22 08:27:20;;;;;;;9.43;5.10;;;;;;;;;;4978707;28;20033;-76
2022/11/22 08:29:45;;;;;;;10.38;6.03;;;;;;;;;;4977578;28;20037;-77
2022/11/22 08:32:10;;;;;;;11.50;6.60;;;;;;;;;;5000771;28;20022;-76
2022/11/22 08:34:35;;;;;;;12.93;6.75;;;;;;;;;;5001003;28;20031;-76
2022/11/22 08:37:01;;;;;;;14.50;7.25;;;;;;;;;;4981159;28;20435;-73
2022/11/22 08:39:26;;;;;;;13.48;5.97;;;;;;;;;;4999546;28;20038;-75
2022/11/22 08:41:51;;;;;;;9.32;5.93;;;;;;;;;;4998577;28;20030;-75
2022/11/22 08:44:17;;;;;;;10.50;6.00;;;;;;;;;;4997943;28;20033;-76
2022/11/22 08:46:42;;;;;;;12.43;6.45;;;;;;;;;;4996161;28;20033;-74
2022/11/22 08:49:10;;;;;;;9.95;6.07;;;;;;;;;;4998265;28;20034;-74
2022/11/22 08:51:35;;;;;;;10.52;5.63;;;;;;;;;;4998387;28;20022;-76
2022/11/22 08:54:01;;;;;;;10.77;6.13;;;;;;;;;;4997759;28;20037;-75
2022/11/22 08:56:26;;;;;;;14.23;6.75;;;;;;;;;;4997890;28;20030;-74
2022/11/22 08:58:52;;;;;;;11.10;5.88;;;;;;;;;;4996320;28;20109;-75
2022/11/22 09:01:20;;;;;;;10.65;6.47;;;;;;;;;;4998650;28;20029;-75
2022/11/22 09:03:45;;;;;;;6.63;4.35;;;;;;;;;;4997616;28;20022;-76
2022/11/22 09:06:17;;;;;;;12.77;6.43;;;;;;;;;;4997728;28;20081;-77
2022/11/22 09:08:43;;;;;;;11.00;6.43;;;;;;;;;;4996925;28;20496;-76
2022/11/22 09:11:18;;;;;;;10.00;5.63;;;;;;;;;;4995386;28;20034;-75
2022/11/22 09:13:45;;;;;;;10.35;6.03;;;;;;;;;;4994542;28;20484;-75
2022/11/22 09:16:13;;;;;;;11.20;6.28;;;;;;;;;;4995030;28;20042;-75
2022/11/22 09:18:39;;;;;;;12.75;6.22;;;;;;;;;;4994217;28;20026;-76
2022/11/22 09:21:06;;;;;;;10.68;6.35;;;;;;;;;;4995115;28;20030;-79
2022/11/22 09:23:32;;;;;;;10.05;5.50;;;;;;;;;;4994709;28;20023;-75
2022/11/22 09:26:00;;;;;;;12.15;6.00;;;;;;;;;;4976797;28;20022;-78
2022/11/22 09:28:26;;;;;;;16.13;6.28;;;;;;;;;;4993855;28;20073;-75
2022/11/22 09:30:59;;;;;;;12.15;6.07;;;;;;;;;;4976027;28;20034;-76
2022/11/22 09:33:24;;;;;;;12.65;6.57;;;;;;;;;;4976081;28;20514;-75
2022/11/22 09:35:49;;;;;;;12.25;5.97;;;;;;;;;;4994836;28;20030;-78
2022/11/22 09:38:18;;;;;;;12.02;6.03;;;;;;;;;;4995641;28;20026;-80
2022/11/22 09:40:46;;;;;;;12.65;6.60;;;;;;;;;;4978517;28;20030;-77
2022/11/22 09:43:26;;;;;;;9.52;5.95;;;;;;;;;;4994239;28;20038;-78
2022/11/22 09:46:10;;;;;;;12.23;6.63;;;;;;;;;;4995120;28;20475;-78
2022/11/22 09:48:54;;;;;;;12.97;5.33;;;;;;;;;;4996313;28;20046;-78
2022/11/22 09:51:30;;;;;;;11.15;6.38;;;;;;;;;;4979465;28;20033;-79
2022/11/22 09:54:04;;;;;;;10.35;6.45;;;;;;;;;;5000105;28;20038;-79
2022/11/22 09:56:29;;;;;;;;;;;;;;;;;;4999646;28;20033;-79
2022/11/22 09:59:04;;;;;;;10.55;5.80;;;;;;;;;;4999980;28;19996;-79
2022/11/22 10:01:44;;;;;;;11.27;5.75;;;;;;;;;;5000320;28;20022;-78
2022/11/22 10:04:15;;;;;;;9.10;5.00;;;;;;;;;;4998017;28;20061;-78
2022/11/22 10:06:46;;;;;;;9.13;5.45;;;;;;;;;;4999258;28;20022;-78
2022/11/22 10:09:29;;;;;;;7.50;4.97;;;;;;;;;;5001875;28;20066;-78
2022/11/22 10:12:00;;;;;;;10.15;5.55;;;;;;;;;;5003412;28;20031;-79
2022/11/22 10:14:52;;;;;;;9.48;5.30;;;;;;;;;;5003976;28;20101;-78
2022/11/22 10:17:52;;;;;;;9.45;5.55;;;;;;;;;;5003705;28;20029;-78
2022/11/22 10:20:23;;;;;;;10.90;5.93;;;;;;;;;;5003593;28;20105;-77
2022/11/22 10:22:49;;;;;;;10.23;5.20;;;;;;;;;;5002594;28;20045;-77
2022/11/22 10:25:47;;;;;;;9.77;5.47;;;;;;;;;;5000800;28;20113;-78
2022/11/22 10:28:18;;;;;;;9.10;5.63;;;;;;;;;;4951157;28;20038;-78
2022/11/22 10:31:18;;;;;;;8.65;5.53;;;;;;;;;;5000976;28;20058;-78
2022/11/22 10:34:09;;;;;;;11.50;6.20;;;;;;;;;;4987455;28;20049;-78
2022/11/22 10:36:48;;;;;;;12.02;6.00;;;;;;;;;;5001824;28;20030;-78
2022/11/22 10:39:24;;;;;;;12.38;5.60;;;;;;;;;;5001008;28;20041;-79
2022/11/22 10:41:58;;;;;;;10.80;5.90;;;;;;;;;;4983898;28;20061;-79
2022/11/22 10:44:40;;;;;;;10.48;5.82;;;;;;;;;;5001015;28;20034;-78
2022/11/22 10:47:37;;;;;;;10.15;5.82;;;;;;;;;;5000914;28;20038;-78
2022/11/22 10:50:16;;;;;;;14.88;5.45;;;;;;;;;;5000724;28;20113;-79
2022/11/22 10:53:12;;;;;;;11.27;5.53;;;;;;;;;;5002047;28;20054;-78
2022/11/22 10:55:49;;;;;;;9.05;6.10;;;;;;;;;;5001785;28;20029;-78
2022/11/22 10:58:30;;;;;;;12.30;5.70;;;;;;;;;;5000444;28;20105;-78
2022/11/22 11:01:05;;;;;;;10.57;5.22;;;;;;;;;;4983790;28;20023;-78
2022/11/22 11:03:36;;;;;;;11.23;5.95;;;;;;;;;;5000207;28;20106;-78
2022/11/22 11:06:20;;;;;;;9.70;5.72;;;;;;;;;;4983205;28;20030;-77
2022/11/22 11:08:51;;;;;;;7.45;4.85;;;;;;;;;;4983281;28;20066;-78
2022/11/22 11:11:17;;;;;;;13.07;6.22;;;;;;;;;;5000680;28;20022;-78
2022/11/22 11:13:47;;;;;;;6.45;3.53;;;;;;;;;;4983339;28;20035;-78
2022/11/22 11:16:22;;;;;;;10.68;5.85;;;;;;;;;;5000921;28;20118;-79
2022/11/22 11:19:10;;;;;;;11.55;5.97;;;;;;;;;;5000727;28;20471;-79
2022/11/22 11:21:35;;;;;;;12.52;5.60;;;;;;;;;;5000244;28;20113;-79
2022/11/22 11:24:00;;;;;;;10.70;5.75;;;;;;;;;;4983362;28;20042;-78
2022/11/22 11:26:29;;;;;;;9.65;5.53;;;;;;;;;;4999807;28;20023;-79
2022/11/22 11:29:16;;;;;;;11.38;5.88;;;;;;;;;;5000715;28;20077;-78
2022/11/22 11:32:08;;;;;;;13.73;6.10;;;;;;;;;;4982721;28;20117;-78
2022/11/22 11:34:35;;;;;;;8.32;5.57;;;;;;;;;;4982792;28;20022;-79
2022/11/22 11:37:02;;;;;;;9.15;5.65;;;;;;;;;;5000052;28;20038;-77
2022/11/22 11:39:30;;;;;;;10.35;5.35;;;;;;;;;;4999742;28;20037;-79
2022/11/22 11:41:55;;;;;;;12.43;6.03;;;;;;;;;;4999397;28;20023;-78
2022/11/22 11:44:33;;;;;;;13.85;5.32;;;;;;;;;;4999089;28;20386;-79
2022/11/22 11:46:59;;;;;;;12.00;6.05;;;;;;;;;;4999557;28;20035;-78
2022/11/22 11:49:27;;;;;;;8.85;5.43;;;;;;;;;;4999693;28;20100;-79
2022/11/22 11:51:58;;;;;;;10.30;6.00;;;;;;;;;;4999599;28;20105;-78
2022/11/22 11:54:33;;;;;;;11.27;6.40;;;;;;;;;;4999462;28;20038;-78
2022/11/22 11:57:02;;;;;;;9.52;5.68;;;;;;;;;;4999525;28;20038;-78
2022/11/22 11:59:36;;;;;;;12.50;6.05;;;;;;;;;;4998138;28;20027;-79
2022/11/22 12:02:15;;;;;;;9.00;4.25;;;;;;;;;;4998646;28;20105;-79
2022/11/22 12:04:48;;;;;;;8.40;5.45;;;;;;;;;;5001164;28;20023;-79
2022/11/22 12:07:22;;;;;;;12.73;6.68;;;;;;;;;;5000770;28;20045;-79
2022/11/22 12:09:50;;;;;;;12.85;6.60;;;;;;;;;;4999213;28;20037;-78
2022/11/22 12:12:34;;;;;;;13.48;6.72;;;;;;;;;;4998139;28;20398;-78
2022/11/22 12:15:10;;;;;;;12.68;6.80;;;;;;;;;;4998854;28;20029;-78
2022/11/22 12:17:43;;;;;;;14.40;7.55;;;;;;;;;;4982030;28;20030;-78
2022/11/22 12:20:18;;;;;;;10.48;6.18;;;;;;;;;;5000391;28;20041;-79
2022/11/22 12:22:57;;;;;;;14.48;6.65;;;;;;;;;;4999212;28;20018;-78
2022/11/22 12:25:35;;;;;;;13.80;6.68;;;;;;;;;;4998234;28;20022;-79
2022/11/22 12:28:10;;;;;;;16.08;7.90;;;;;;;;;;4998457;28;20076;-78
2022/11/22 12:30:39;;;;;;;13.73;7.18;;;;;;;;;;4998534;28;20026;-79
2022/11/22 12:33:07;;;;;;;13.32;7.07;;;;;;;;;;4998382;28;20109;-79
2022/11/22 12:35:42;;;;;;;11.82;6.72;;;;;;;;;;4998914;28;20022;-78
2022/11/22 12:38:16;;;;;;;13.13;7.18;;;;;;;;;;4998958;28;20134;-79
2022/11/22 12:40:44;;;;;;;11.82;7.13;;;;;;;;;;4999081;28;20106;-80
2022/11/22 12:43:19;;;;;;;12.00;6.78;;;;;;;;;;4998615;28;20026;-79
2022/11/22 12:45:56;;;;;;;13.32;7.05;;;;;;;;;;4998582;28;20022;-78
2022/11/22 12:48:35;;;;;;;14.50;7.47;;;;;;;;;;4999170;28;20057;-77
2022/11/22 12:51:33;;;;;;;11.93;6.18;;;;;;;;;;4997928;28;20026;-78
2022/11/22 12:54:03;;;;;;;13.63;6.43;;;;;;;;;;4991778;28;20038;-79
2022/11/22 12:56:43;;;;;;;12.05;6.90;;;;;;;;;;4998688;28;20022;-78
2022/11/22 12:59:26;;;;;;;11.70;6.68;;;;;;;;;;4998238;28;20380;-79
2022/11/22 13:02:20;;;;;;;12.63;7.20;;;;;;;;;;4998218;28;20061;-78
2022/11/22 13:04:52;;;;;;;10.25;6.20;;;;;;;;;;4990589;28;20073;-78
2022/11/22 13:08:00;;;;;;;14.55;7.00;;;;;;;;;;4980836;28;20026;-77
2022/11/22 13:10:30;;;;;;;11.68;5.43;;;;;;;;;;4981037;28;20029;-79
2022/11/22 13:12:58;;;;;;;12.60;7.28;;;;;;;;;;4998385;28;20484;-79
2022/11/22 13:15:31;;;;;;;11.57;7.20;;;;;;;;;;4997428;28;20026;-79
2022/11/22 13:17:57;;;;;;;12.65;7.82;;;;;;;;;;4997189;28;20032;-78
2022/11/22 13:20:26;;;;;;;15.13;7.50;;;;;;;;;;4980912;28;20134;-79
2022/11/22 13:22:58;;;;;;;15.95;7.63;;;;;;;;;;4980616;28;20510;-78
2022/11/22 13:25:33;;;;;;;16.13;6.40;;;;;;;;;;4998195;28;20026;-78
2022/11/22 13:28:04;;;;;;;13.40;7.05;;;;;;;;;;4997506;28;20081;-78
2022/11/22 13:30:31;;;;;;;13.52;7.53;;;;;;;;;;4980033;28;20061;-78
2022/11/22 13:32:59;;;;;;;13.57;7.38;;;;;;;;;;4996894;28;20097;-79
2022/11/22 13:35:35;;;;;;;11.50;6.35;;;;;;;;;;4997434;28;20018;-79
2022/11/22 13:38:06;;;;;;;11.80;7.05;;;;;;;;;;4996657;28;20412;-77
2022/11/22 13:40:38;;;;;;;12.68;7.22;;;;;;;;;;4996697;28;20511;-77
2022/11/22 13:43:13;;;;;;;14.88;7.72;;;;;;;;;;4996928;28;20036;-78
2022/11/22 13:45:46;;;;;;;10.95;6.20;;;;;;;;;;4996879;28;20036;-78
2022/11/22 13:48:12;;;;;;;12.70;7.28;;;;;;;;;;4997924;28;20129;-79
2022/11/22 13:50:40;;;;;;;12.07;7.70;;;;;;;;;;4998069;28;20080;-80
2022/11/22 13:53:18;;;;;;;13.90;7.50;;;;;;;;;;4998023;28;20022;-80
2022/11/22 13:55:44;;;;;;;13.68;7.35;;;;;;;;;;4998171;28;20018;-78
2022/11/22 13:58:24;;;;;;;16.90;7.43;;;;;;;;;;4997612;28;20037;-79
2022/11/22 14:00:56;;;;;;;13.07;7.18;;;;;;;;;;4980022;28;20030;-78
2022/11/22 14:03:36;;;;;;;12.25;7.03;;;;;;;;;;4997437;28;20109;-78
2022/11/22 14:06:20;;;;;;;13.02;7.20;;;;;;;;;;4979679;28;20103;-79
2022/11/22 14:08:47;;;;;;;11.45;6.85;;;;;;;;;;4996444;28;20073;-79
2022/11/22 14:11:18;;;;;;;14.75;7.03;;;;;;;;;;4997273;28;20081;-78
2022/11/22 14:13:54;;;;;;;13.70;7.60;;;;;;;;;;4997172;28;20030;-81
2022/11/22 14:16:48;;;;;;;11.07;7.05;;;;;;;;;;4996893;28;20118;-78
2022/11/22 14:19:39;;;;;;;14.85;7.85;;;;;;;;;;4997394;28;20026;-78
2022/11/22 14:22:38;;;;;;;19.42;9.93;;;;;;;;;;4961723;28;20034;-78
2022/11/22 14:25:15;;;;;;;13.18;7.35;;;;;;;;;;4996212;28;20101;-78
2022/11/22 14:28:00;;;;;;;15.93;8.73;;;;;;;;;;4997419;28;20174;-78
2022/11/22 14:30:39;;;;;;;15.30;8.05;;;;;;;;;;4996782;28;20500;-78
2022/11/22 14:33:14;;;;;;;17.35;8.13;;;;;;;;;;4997234;28;20030;-79
2022/11/22 14:36:05;;;;;;;16.10;8.93;;;;;;;;;;4979604;28;20027;-79
2022/11/22 14:38:43;;;;;;;15.70;8.77;;;;;;;;;;4996792;28;20069;-78
2022/11/22 14:41:26;;;;;;;17.10;8.82;;;;;;;;;;4995933;28;20041;-78
2022/11/22 14:44:00;;;;;;;15.43;9.17;;;;;;;;;;4996249;28;20037;-79
2022/11/22 14:46:28;;;;;;;17.50;8.77;;;;;;;;;;4979339;28;20365;-79
2022/11/22 14:49:00;;;;;;;12.77;7.75;;;;;;;;;;4996541;28;20030;-79
2022/11/22 14:51:32;;;;;;;17.60;9.65;;;;;;;;;;4996898;28;20383;-80
2022/11/22 14:54:00;;;;;;;18.67;10.43;;;;;;;;;;4981502;28;20037;-78
2022/11/22 14:56:33;;;;;;;17.50;10.32;;;;;;;;;;5000553;28;20026;-79
2022/11/22 14:59:45;;;;;;;20.23;10.30;;;;;;;;;;5000505;28;20045;-78